createdAt,value
2022-11-29T00:02:31.111Z,3.30
2022-11-29T00:04:58.289Z,3.58
2022-11-29T00:07:25.560Z,3.50
2022-11-29T00:09:58.825Z,3.35
2022-11-29T00:12:25.929Z,3.67
2022-11-29T00:14:53.102Z,3.30
2022-11-29T00:17:26.819Z,3.67
2022-11-29T00:19:53.952Z,3.28
2022-11-29T00:22:30.009Z,3.67
2022-11-29T00:24:57.123Z,3.42
2022-11-29T00:27:24.391Z,3.85
2022-11-29T00:29:57.881Z,3.33
2022-11-29T00:32:25.041Z,3.47
2022-11-29T00:35:01.259Z,3.72
2022-11-29T00:37:36.768Z,3.85
2022-11-29T00:40:11.068Z,3.55
2022-11-29T00:42:38.183Z,3.03
2022-11-29T00:45:05.530Z,3.33
2022-11-29T00:47:38.811Z,3.10
2022-11-29T00:50:06.353Z,3.38
2022-11-29T00:55:07.725Z,3.38
2022-11-29T01:00:08.840Z,3.25
2022-11-29T01:02:36.094Z,3.45
2022-11-29T01:05:09.905Z,3.20
2022-11-29T01:07:37.041Z,2.90
2022-11-29T01:10:04.514Z,3.25
2022-11-29T01:12:37.862Z,2.25
2022-11-29T01:15:05.948Z,3.47
2022-11-29T01:17:33.096Z,3.50
2022-11-29T01:20:07.057Z,3.15
2022-11-29T01:22:37.958Z,3.00
2022-11-29T01:25:05.587Z,3.38
2022-11-29T01:30:07.019Z,3.38
2022-11-29T01:32:40.955Z,3.05
2022-11-29T01:35:08.348Z,3.38
2022-11-29T01:37:48.829Z,3.45
2022-11-29T01:40:16.023Z,3.50
2022-11-29T01:42:43.131Z,3.60
2022-11-29T01:45:30.920Z,3.67
2022-11-29T01:47:58.274Z,3.40
2022-11-29T01:50:39.094Z,3.63
2022-11-29T01:53:06.633Z,3.78
2022-11-29T01:58:07.966Z,3.90
2022-11-29T02:00:35.760Z,4.32
2022-11-29T02:03:06.167Z,3.88
2022-11-29T02:05:39.908Z,3.47
2022-11-29T02:08:13.935Z,3.15
2022-11-29T02:10:49.379Z,3.80
2022-11-29T02:13:37.745Z,3.60
2022-11-29T02:16:24.933Z,3.17
2022-11-29T02:19:04.756Z,3.95
2022-11-29T02:21:56.848Z,3.83
2022-11-29T02:24:39.915Z,4.28
2022-11-29T02:27:19.835Z,3.22
2022-11-29T02:29:47.091Z,4.05
2022-11-29T02:32:26.851Z,3.90
2022-11-29T02:35:08.256Z,3.47
2022-11-29T02:38:13.831Z,4.03
2022-11-29T02:40:47.054Z,3.88
2022-11-29T02:43:43.988Z,3.92
2022-11-29T02:46:23.269Z,4.00
2022-11-29T02:49:02.846Z,3.90
2022-11-29T02:51:46.821Z,3.95
2022-11-29T02:54:28.884Z,3.78
2022-11-29T02:57:00.898Z,4.15
2022-11-29T02:59:47.865Z,4.20
2022-11-29T03:02:21.776Z,4.47
2022-11-29T03:05:19.964Z,3.95
2022-11-29T03:07:50.424Z,4.40
2022-11-29T03:10:42.984Z,3.92
2022-11-29T03:13:14.937Z,4.30
2022-11-29T03:15:54.947Z,3.90
2022-11-29T03:18:55.988Z,4.00
2022-11-29T03:21:29.851Z,4.70
2022-11-29T03:24:03.783Z,3.78
2022-11-29T03:26:41.936Z,4.03
2022-11-29T03:29:17.543Z,3.75
2022-11-29T03:31:54.946Z,3.90
2022-11-29T03:34:26.432Z,3.28
2022-11-29T03:37:12.942Z,4.10
2022-11-29T03:40:00.313Z,4.25
2022-11-29T03:42:37.842Z,3.90
2022-11-29T03:45:05.071Z,3.65
2022-11-29T03:47:43.261Z,4.28
2022-11-29T03:52:56.877Z,3.97
2022-11-29T03:55:43.770Z,4.63
2022-11-29T03:58:36.010Z,4.03
2022-11-29T04:01:05.962Z,3.90
2022-11-29T04:03:48.987Z,4.28
2022-11-29T04:06:19.277Z,4.15
2022-11-29T04:09:03.086Z,4.57
2022-11-29T04:11:33.421Z,4.45
2022-11-29T04:14:15.997Z,4.82
2022-11-29T04:16:56.692Z,4.97
2022-11-29T04:19:43.003Z,4.90
2022-11-29T04:22:16.567Z,5.30
2022-11-29T04:25:09.049Z,5.45
2022-11-29T04:27:36.371Z,5.18
2022-11-29T04:30:03.439Z,6.03
2022-11-29T04:32:54.906Z,5.57
2022-11-29T04:35:25.144Z,6.53
2022-11-29T04:38:30.983Z,7.13
2022-11-29T04:41:14.524Z,6.85
2022-11-29T04:44:07.041Z,7.88
2022-11-29T04:46:46.644Z,9.27
2022-11-29T04:49:39.976Z,8.98
2022-11-29T04:52:16.193Z,9.23
2022-11-29T04:55:06.912Z,10.40
2022-11-29T04:57:40.097Z,10.63
2022-11-29T05:00:16.990Z,11.13
2022-11-29T05:02:57.825Z,11.27
2022-11-29T05:05:45.018Z,12.52
2022-11-29T05:08:25.853Z,11.63
2022-11-29T05:11:11.965Z,11.88
2022-11-29T05:13:51.930Z,12.38
2022-11-29T05:16:42.804Z,11.52
2022-11-29T05:19:25.788Z,10.77
2022-11-29T05:22:12.064Z,11.25
2022-11-29T05:24:48.935Z,10.80
2022-11-29T05:27:35.203Z,12.00
2022-11-29T05:30:08.960Z,12.55
2022-11-29T05:32:48.066Z,12.45
2022-11-29T05:35:21.844Z,12.18
2022-11-29T05:37:56.055Z,12.05
2022-11-29T05:40:47.958Z,11.88
2022-11-29T05:43:33.919Z,11.27
2022-11-29T05:46:17.002Z,11.68
2022-11-29T05:48:51.962Z,11.95
2022-11-29T05:51:28.953Z,11.07
2022-11-29T05:54:15.118Z,11.45
2022-11-29T05:57:03.896Z,10.52
2022-11-29T05:59:31.909Z,10.60
2022-11-29T06:02:23.924Z,10.70
2022-11-29T06:05:03.898Z,10.70
2022-11-29T06:07:37.870Z,9.55
2022-11-29T06:10:17.808Z,9.30
2022-11-29T06:12:55.934Z,11.55
2022-11-29T06:15:56.792Z,10.65
2022-11-29T06:18:33.820Z,9.25
2022-11-29T06:21:20.977Z,9.50
2022-11-29T06:23:51.140Z,9.88
2022-11-29T06:26:31.018Z,10.35
2022-11-29T06:29:01.804Z,9.52
2022-11-29T06:31:51.009Z,9.90
2022-11-29T06:34:31.125Z,9.52
2022-11-29T06:37:08.948Z,9.65
2022-11-29T06:39:49.807Z,9.10
2022-11-29T06:42:17.279Z,9.38
2022-11-29T06:47:18.225Z,9.07
2022-11-29T06:49:57.974Z,9.07
2022-11-29T06:52:43.869Z,8.30
2022-11-29T06:55:29.983Z,8.95
2022-11-29T06:58:03.004Z,8.80
2022-11-29T07:00:44.883Z,8.75
2022-11-29T07:03:30.935Z,8.25
2022-11-29T07:06:04.871Z,8.63
2022-11-29T07:08:38.894Z,7.18
2022-11-29T07:11:06.275Z,8.65
2022-11-29T07:13:39.927Z,8.02
2022-11-29T07:16:27.357Z,7.97
2022-11-29T07:19:07.040Z,8.02
2022-11-29T07:21:46.062Z,7.38
2022-11-29T07:24:35.092Z,6.85
2022-11-29T07:27:08.552Z,7.68
2022-11-29T07:29:49.893Z,7.07
2022-11-29T07:32:57.287Z,6.97
2022-11-29T07:38:13.948Z,5.57
2022-11-29T07:40:59.018Z,6.78
2022-11-29T07:43:38.484Z,7.03
2022-11-29T07:46:12.154Z,7.05
2022-11-29T07:48:39.367Z,6.95
2022-11-29T07:51:06.558Z,7.07
2022-11-29T07:53:41.102Z,7.07
2022-11-29T07:56:09.551Z,7.63
2022-11-29T07:58:36.942Z,7.88
2022-11-29T08:01:11.113Z,7.78
2022-11-29T08:03:38.377Z,7.80
2022-11-29T08:06:11.929Z,8.18
2022-11-29T08:08:43.737Z,7.38
2022-11-29T08:11:21.050Z,7.82
2022-11-29T08:13:48.169Z,8.35
2022-11-29T08:16:18.997Z,8.27
2022-11-29T08:18:55.943Z,8.57
2022-11-29T08:21:23.287Z,9.13
2022-11-29T08:23:58.204Z,8.32
2022-11-29T08:26:31.102Z,9.25
2022-11-29T08:29:05.047Z,9.45
2022-11-29T08:31:32.573Z,10.57
2022-11-29T08:36:32.933Z,10.00
2022-11-29T08:39:09.484Z,10.57
2022-11-29T08:41:43.900Z,10.13
2022-11-29T08:44:11.047Z,11.25
2022-11-29T08:47:03.100Z,10.80
2022-11-29T08:49:30.370Z,10.32
2022-11-29T08:52:24.182Z,11.13
2022-11-29T08:54:51.421Z,11.07
2022-11-29T08:57:39.002Z,12.40
2022-11-29T09:00:12.950Z,11.93
2022-11-29T09:02:40.319Z,11.70
2022-11-29T09:05:15.231Z,11.63
2022-11-29T09:07:42.941Z,11.85
2022-11-29T09:10:10.474Z,11.48
2022-11-29T09:15:11.620Z,10.75
2022-11-29T09:17:46.111Z,12.88
2022-11-29T09:20:13.405Z,12.27
2022-11-29T09:22:40.571Z,12.30
2022-11-29T09:25:13.927Z,11.73
2022-11-29T09:27:41.772Z,12.63
2022-11-29T09:30:20.565Z,11.45
2022-11-29T09:32:50.594Z,12.27
2022-11-29T09:35:23.974Z,11.88
2022-11-29T09:38:04.996Z,11.13
2022-11-29T09:40:53.003Z,12.23
2022-11-29T09:43:38.878Z,12.02
2022-11-29T09:46:18.359Z,11.60
2022-11-29T09:49:09.851Z,11.05
2022-11-29T09:51:57.400Z,10.82
2022-11-29T09:54:33.855Z,10.93
2022-11-29T09:57:08.914Z,11.15
2022-11-29T09:59:45.857Z,11.95
2022-11-29T10:02:21.469Z,11.85
2022-11-29T10:05:08.860Z,12.23
2022-11-29T10:07:39.990Z,12.27
2022-11-29T10:10:20.884Z,11.48
2022-11-29T10:12:51.230Z,10.65
2022-11-29T10:15:29.854Z,11.05
2022-11-29T10:17:57.245Z,10.60
2022-11-29T10:20:37.844Z,11.18
2022-11-29T10:23:13.299Z,10.75
2022-11-29T10:25:54.864Z,11.57
2022-11-29T10:28:30.666Z,10.27
2022-11-29T10:31:08.042Z,11.20
2022-11-29T10:33:36.906Z,10.32
2022-11-29T10:36:06.096Z,11.00
2022-11-29T10:38:40.051Z,9.23
2022-11-29T10:41:19.414Z,11.20
2022-11-29T10:43:52.986Z,10.15
2022-11-29T10:46:31.340Z,10.60
2022-11-29T10:49:07.086Z,9.80
2022-11-29T10:51:34.980Z,10.75
2022-11-29T10:54:27.092Z,11.07
2022-11-29T10:56:54.897Z,10.50
2022-11-29T10:59:23.935Z,9.32
2022-11-29T11:01:57.946Z,11.45
2022-11-29T11:04:41.934Z,10.25
2022-11-29T11:07:22.008Z,10.63
2022-11-29T11:09:56.882Z,9.63
2022-11-29T11:12:26.584Z,9.95
2022-11-29T11:15:20.236Z,10.00
2022-11-29T11:17:57.871Z,9.88
2022-11-29T11:20:32.863Z,7.35
2022-11-29T11:23:02.256Z,9.30
2022-11-29T11:25:37.918Z,9.50
2022-11-29T11:28:24.955Z,9.90
2022-11-29T11:31:03.089Z,9.73
2022-11-29T11:33:32.796Z,10.52
2022-11-29T11:36:10.066Z,10.00
2022-11-29T11:38:57.185Z,10.40
2022-11-29T11:41:51.012Z,9.52
2022-11-29T11:44:45.732Z,9.25
2022-11-29T11:47:25.907Z,9.80
2022-11-29T11:50:04.898Z,10.18
2022-11-29T11:52:48.864Z,10.05
2022-11-29T11:55:36.328Z,9.98
2022-11-29T11:58:18.881Z,10.20
2022-11-29T12:01:08.891Z,10.93
2022-11-29T12:04:01.959Z,11.13
2022-11-29T12:06:29.334Z,9.52
2022-11-29T12:09:08.895Z,9.43
2022-11-29T12:11:47.184Z,10.15
2022-11-29T12:14:25.034Z,9.93
2022-11-29T12:16:55.355Z,10.40
2022-11-29T12:19:32.881Z,9.60
2022-11-29T12:22:02.684Z,9.90
2022-11-29T12:24:47.391Z,9.38
2022-11-29T12:27:15.924Z,9.85
2022-11-29T12:29:49.898Z,9.48
2022-11-29T12:32:24.850Z,10.18
2022-11-29T12:35:05.917Z,9.30
2022-11-29T12:37:55.022Z,9.57
2022-11-29T12:40:41.031Z,10.52
2022-11-29T12:43:23.489Z,8.63
2022-11-29T12:46:11.154Z,9.38
2022-11-29T12:48:56.361Z,9.68
2022-11-29T12:51:34.928Z,9.35
2022-11-29T12:54:05.277Z,8.85
2022-11-29T12:56:44.916Z,8.45
2022-11-29T12:59:21.021Z,8.50
2022-11-29T13:01:58.077Z,7.60
2022-11-29T13:04:38.118Z,8.05
2022-11-29T13:07:30.135Z,8.88
2022-11-29T13:10:18.293Z,7.63
2022-11-29T13:12:54.087Z,8.30
2022-11-29T13:15:23.134Z,8.50
2022-11-29T13:18:03.181Z,8.60
2022-11-29T13:20:33.722Z,8.32
2022-11-29T13:23:14.034Z,8.45
2022-11-29T13:25:43.457Z,8.18
2022-11-29T13:28:29.094Z,8.05
2022-11-29T13:31:00.501Z,7.93
2022-11-29T13:33:47.939Z,8.23
2022-11-29T13:36:31.101Z,8.18
2022-11-29T13:39:17.918Z,8.43
2022-11-29T13:41:54.104Z,7.70
2022-11-29T13:44:25.335Z,8.50
2022-11-29T13:47:11.039Z,7.35
2022-11-29T13:49:53.673Z,8.30
2022-11-29T13:52:46.271Z,8.18
2022-11-29T13:55:18.303Z,8.18
2022-11-29T13:58:18.404Z,7.25
2022-11-29T14:00:45.972Z,8.30
2022-11-29T14:03:26.082Z,8.32
2022-11-29T14:06:10.923Z,8.57
2022-11-29T14:09:17.242Z,7.63
2022-11-29T14:11:50.220Z,8.10
2022-11-29T14:14:17.399Z,7.32
2022-11-29T14:17:12.085Z,7.78
2022-11-29T14:19:46.020Z,7.82
2022-11-29T14:22:26.921Z,7.53
2022-11-29T14:24:59.088Z,7.35
2022-11-29T14:27:32.936Z,7.85
2022-11-29T14:30:00.118Z,8.27
2022-11-29T14:32:33.915Z,7.63
2022-11-29T14:35:01.013Z,7.55
2022-11-29T14:37:53.994Z,7.03
2022-11-29T14:40:37.007Z,7.30
2022-11-29T14:43:22.162Z,6.85
2022-11-29T14:46:07.619Z,7.38
2022-11-29T14:48:41.973Z,7.03
2022-11-29T14:51:10.242Z,6.57
2022-11-29T14:53:45.010Z,7.55
2022-11-29T14:56:30.662Z,7.25
2022-11-29T14:59:23.014Z,7.30
2022-11-29T15:01:50.683Z,7.35
2022-11-29T15:04:24.026Z,7.05
2022-11-29T15:06:53.074Z,7.03
2022-11-29T15:09:28.186Z,7.55
2022-11-29T15:12:03.699Z,6.90
2022-11-29T15:14:56.252Z,7.07
2022-11-29T15:17:42.187Z,7.28
2022-11-29T15:20:35.003Z,7.40
2022-11-29T15:23:04.129Z,7.45
2022-11-29T15:25:38.999Z,7.53
2022-11-29T15:28:06.834Z,7.10
2022-11-29T15:30:45.015Z,7.68
2022-11-29T15:35:39.148Z,6.70
2022-11-29T15:38:13.234Z,7.13
2022-11-29T15:40:54.590Z,6.97
2022-11-29T15:43:41.009Z,7.20
2022-11-29T15:46:25.944Z,6.07
2022-11-29T15:49:00.040Z,6.45
2022-11-29T15:51:37.955Z,6.53
2022-11-29T15:54:25.120Z,6.50
